RJOA/HIJ METAR and TAF weather

Enter ICAO airport designator
Station Type Date Time Source
RJOA METAR 2022/12/08 13:00 UTC NOAA

RJOA 081300Z 33005KT 9999 FEW030 SCT120 07/02 Q1023


Station Type Date Time Source
RJOA Decoded METAR 2022/12/08 13:00 UTC NOAA

Hiroshima Airport, Japan (RJOA) 34-26N 132-55E 334M
Dec 08, 2022 - 08:00 AM EST / 2022.12.08 1300 UTC
Wind: from the NNW (330 degrees) at 6 MPH (5 KT):0
Visibility: greater than 7 mile(s):0
Sky conditions: partly cloudy
Temperature: 44 F (7 C)
Dew Point: 35 F (2 C)
Relative Humidity: 70%
Pressure (altimeter): 30.21 in. Hg (1023 hPa)
ob: RJOA 081300Z 33005KT 9999 FEW030 SCT120 07/02 Q1023
cycle: 13

Station Type Date Time Source
RJOA TAF 2022/12/08 12:30 UTC NOAA

TAF RJOA 081105Z 0812/0918 32005KT 9999 FEW030

Example: see airport list